Ahoskie, NC

4:05 PM EST on February 06, 2016 (GMT -0500)
Tri County | | Change Station
CLOSE
Current Station
Airport
Location: Ahoskie,
Elevation: 69 ft
Nearby Weather Stations

Elev 69 ft 36.30 °N, 77.17 °W | Updated 10 minutes ago

Partly Cloudy
Partly Cloudy
44 °F
Feels Like 41 °F
N
5
Wind Variable Wind from NNE

Today
High -- | Low -- °F
--% Chance of Precip.
Yesterday
High -- | Low -- °F
Precip. -- in
Pressure 30.33 in
Visibility 10.0 miles
Clouds Clear
Windchill 41 °F
Dew Point 23 °F
Humidity 43%
Rainfall 0.00 in
Snow Depth Not available.
7:05 AM 5:39 PM
Waning Crescent, 4% visible
METAR KASJ 062055Z AUTO 02004KT 10SM CLR 07/M05 A3033 RMK AO2 T00651052
Pressure 30.33 in
Visibility 10.0 miles
Clouds Clear
Windchill 41 °F
Dew Point 23 °F
Humidity 43%
Rainfall 0.00 in
Snow Depth Not available.
7:05 AM 5:39 PM
Waning Crescent, 4% visible
METAR KASJ 062055Z AUTO 02004KT 10SM CLR 07/M05 A3033 RMK AO2 T00651052

10-Day Weather Forecast

Almanac

Astronomy

Feb. 06, 2016 Rise Set
Actual Time
Civil Twilight
Nautical Twilight
Astronomical Twilight
Moon
Length of Visible Light
Length of Day
Tomorrow will be .
, % of the Moon is Illuminated

Today's Extremes

State Highs State Lows

Community

WunderPhotos

Upload Photos

1,891,050 photos uploaded!

WunderBlog® & News

Nearby

Air Quality

  Air Quality AQ Index Pollutant
Not available.

Snow Depth

Station Depth Elevation

Earthquake Activity

City Distance Mag. Time & Date
Minimum magnitude displayed is 2.5.

Coastal Water Temperatures

Place Temperature

Stations

Nearby Weather Stations

Station Location Temp. Windchill Dew Point Humidity Wind Precip. Elev Updated Type
                   

Watches & Warnings

There are currently no watches in effect.